EGBJ - Staverton Private
Distance from station: E 5mi, 14km
Updated: 06/13/2024 11:20am
NOT Current
Nearby showers, Mostly cloudy
Nearby showers, Mostly cloudy
 Wind from S
Wind: S 12 mph , 19 km/h, Gust: 25 mph , 41 km/h
Temperature: 54°F , 12°C
Dew Point: 50°F , 10°C
Humidity: 88%
Barometer: 29.65 inHg , 1004 hPa
Summary: Nearby Showers
Clouds: Mostly Cloudy
Visibility: 6 miles , 9 km
Cloud details: Partly Cloudy 1200 ft
Mostly Cloudy 2600 ft
2024/06/13 18:20 EGBJ 131820Z 17010G22KT 140V200 9000 VCSH SCT012 BKN026 12/10 Q1004